Time;durP1;ratioP1;P1;durP2;ratioP2;P2;SDS_P1;SDS_P2;PMS_P1;PMS_P2;Temp;Humidity;BMP_temperature;BMP_pressure;BME280_temperature;BME280_humidity;BME280_pressure;Samples;Min_cycle;Max_cycle;Signal;HPM_P1;HPM_P2
2023/08/26 00:01:25;;;;;;;9.50;5.70;;;;;;;;;;4996852;28;20030;-47
2023/08/26 00:03:50;;;;;;;9.85;5.80;;;;;;;;;;5003237;28;20840;-46
2023/08/26 00:06:15;;;;;;;7.83;5.37;;;;;;;;;;5015543;23;20033;-46
2023/08/26 00:08:41;;;;;;;10.63;5.70;;;;;;;;;;5036969;28;20029;-46
2023/08/26 00:11:06;;;;;;;9.07;6.15;;;;;;;;;;4999641;28;20029;-46
2023/08/26 00:13:31;;;;;;;8.75;5.50;;;;;;;;;;5043022;28;20033;-46
2023/08/26 00:15:56;;;;;;;10.30;6.00;;;;;;;;;;5035186;28;20053;-46
2023/08/26 00:18:22;;;;;;;10.53;5.70;;;;;;;;;;5031087;28;20278;-46
2023/08/26 00:20:47;;;;;;;8.43;5.93;;;;;;;;;;5028646;28;20029;-46
2023/08/26 00:23:12;;;;;;;8.23;5.53;;;;;;;;;;5029633;28;20037;-46
2023/08/26 00:25:37;;;;;;;7.70;5.53;;;;;;;;;;5024081;28;20555;-46
2023/08/26 00:28:03;;;;;;;9.37;5.90;;;;;;;;;;5035960;28;20017;-45
2023/08/26 00:30:28;;;;;;;8.27;5.15;;;;;;;;;;5026693;28;20021;-46
2023/08/26 00:32:53;;;;;;;9.40;4.97;;;;;;;;;;5034893;28;20079;-46
2023/08/26 00:35:19;;;;;;;7.80;5.00;;;;;;;;;;5037118;28;20029;-46
2023/08/26 00:37:44;;;;;;;7.73;4.97;;;;;;;;;;5010223;28;20299;-46
2023/08/26 00:40:09;;;;;;;10.80;5.20;;;;;;;;;;5032489;28;20290;-45
2023/08/26 00:42:35;;;;;;;10.68;5.43;;;;;;;;;;5038474;28;20032;-46
2023/08/26 00:45:01;;;;;;;7.47;4.68;;;;;;;;;;5038288;28;20025;-46
2023/08/26 00:47:26;;;;;;;6.00;3.90;;;;;;;;;;5027775;28;20029;-46
2023/08/26 00:49:52;;;;;;;6.53;4.10;;;;;;;;;;5035763;28;20035;-46
2023/08/26 00:52:17;;;;;;;7.57;4.82;;;;;;;;;;5035823;28;20025;-46
2023/08/26 00:54:42;;;;;;;7.60;4.32;;;;;;;;;;5025787;28;20071;-45
2023/08/26 00:57:08;;;;;;;7.03;4.65;;;;;;;;;;5030114;28;20021;-46
2023/08/26 00:59:34;;;;;;;7.28;4.65;;;;;;;;;;5033535;28;20025;-46
2023/08/26 01:01:59;;;;;;;4.70;3.47;;;;;;;;;;5020919;28;20390;-46
2023/08/26 01:04:25;;;;;;;6.05;3.70;;;;;;;;;;5033536;28;20029;-46
2023/08/26 01:06:50;;;;;;;9.32;4.25;;;;;;;;;;5015197;28;20033;-46
2023/08/26 01:09:15;;;;;;;10.80;4.33;;;;;;;;;;5034814;28;20033;-46
2023/08/26 01:11:56;;;;;;;3.40;2.40;;;;;;;;;;5030863;28;20033;-46
2023/08/26 01:14:29;;;;;;;5.05;3.33;;;;;;;;;;5036420;28;20534;-45
2023/08/26 01:16:55;;;;;;;7.03;3.83;;;;;;;;;;5042333;28;20713;-46
2023/08/26 01:19:27;;;;;;;6.80;3.17;;;;;;;;;;5033255;28;20013;-46
2023/08/26 01:21:54;;;;;;;6.90;3.50;;;;;;;;;;5034303;28;20047;-46
2023/08/26 01:24:20;;;;;;;4.38;2.85;;;;;;;;;;5032958;28;20039;-46
2023/08/26 01:26:45;;;;;;;7.15;3.45;;;;;;;;;;5034315;28;20021;-46
2023/08/26 01:29:10;;;;;;;4.03;2.07;;;;;;;;;;5031829;28;20036;-46
2023/08/26 01:31:37;;;;;;;5.00;2.93;;;;;;;;;;5037099;28;20411;-46
2023/08/26 01:34:09;;;;;;;8.10;3.10;;;;;;;;;;5036287;28;20108;-46
2023/08/26 01:36:37;;;;;;;6.80;3.42;;;;;;;;;;5025584;28;20104;-46
2023/08/26 01:39:03;;;;;;;5.35;3.33;;;;;;;;;;5030126;28;20040;-46
2023/08/26 01:41:30;;;;;;;4.75;2.72;;;;;;;;;;5037198;28;20063;-46
2023/08/26 01:43:56;;;;;;;6.35;3.17;;;;;;;;;;5031660;28;20025;-46
2023/08/26 01:46:33;;;;;;;5.40;2.95;;;;;;;;;;5028506;28;20029;-46
2023/08/26 01:48:58;;;;;;;7.15;2.95;;;;;;;;;;5035637;28;20116;-46
2023/08/26 01:51:23;;;;;;;4.13;3.27;;;;;;;;;;5039747;28;20025;-45
2023/08/26 01:53:49;;;;;;;6.83;2.83;;;;;;;;;;5031881;28;20025;-46
2023/08/26 01:56:14;;;;;;;4.63;2.60;;;;;;;;;;5031419;28;20360;-45
2023/08/26 01:58:39;;;;;;;6.30;2.90;;;;;;;;;;5033232;28;20112;-46
2023/08/26 02:01:06;;;;;;;7.33;2.80;;;;;;;;;;5028002;28;20040;-46
2023/08/26 02:03:31;;;;;;;6.45;2.97;;;;;;;;;;5034857;28;20279;-46
2023/08/26 02:05:56;;;;;;;4.93;3.03;;;;;;;;;;5028489;28;20490;-46
2023/08/26 02:08:22;;;;;;;5.30;2.80;;;;;;;;;;5029787;28;20068;-46
2023/08/26 02:10:53;;;;;;;5.73;2.63;;;;;;;;;;5040505;28;20278;-46
2023/08/26 02:13:18;;;;;;;6.13;3.03;;;;;;;;;;5032746;28;20827;-45
2023/08/26 02:15:43;;;;;;;7.50;3.30;;;;;;;;;;5037308;28;20033;-46
2023/08/26 02:18:09;;;;;;;5.18;2.85;;;;;;;;;;5024577;28;20095;-46
2023/08/26 02:20:34;;;;;;;7.47;2.80;;;;;;;;;;5031321;28;20032;-46
2023/08/26 02:22:59;;;;;;;5.23;2.40;;;;;;;;;;5030186;28;20120;-46
2023/08/26 02:25:25;;;;;;;7.03;3.07;;;;;;;;;;5040252;28;20033;-45
2023/08/26 02:27:50;;;;;;;7.00;2.75;;;;;;;;;;5032009;28;20034;-46
2023/08/26 02:30:15;;;;;;;5.60;2.93;;;;;;;;;;5026161;28;20021;-46
2023/08/26 02:32:40;;;;;;;5.15;2.80;;;;;;;;;;5033711;28;20430;-46
2023/08/26 02:35:06;;;;;;;6.35;2.85;;;;;;;;;;5031461;28;20445;-45
2023/08/26 02:37:31;;;;;;;8.90;3.08;;;;;;;;;;5035797;28;21097;-45
2023/08/26 02:39:57;;;;;;;2.73;2.30;;;;;;;;;;5027709;28;20531;-46
2023/08/26 02:42:22;;;;;;;12.80;7.80;;;;;;;;;;5032550;28;20100;-46
2023/08/26 02:44:47;;;;;;;26.37;15.93;;;;;;;;;;5029477;28;20668;-45
2023/08/26 02:47:12;;;;;;;14.13;9.50;;;;;;;;;;5031326;28;20283;-46
2023/08/26 02:49:38;;;;;;;6.33;3.73;;;;;;;;;;5035400;28;20024;-46
2023/08/26 02:52:03;;;;;;;8.37;3.57;;;;;;;;;;5031424;28;20017;-46
2023/08/26 02:54:28;;;;;;;5.72;2.90;;;;;;;;;;5037439;28;20029;-45
2023/08/26 02:56:54;;;;;;;4.60;2.92;;;;;;;;;;5032259;28;20026;-46
2023/08/26 02:59:19;;;;;;;6.10;3.07;;;;;;;;;;5039008;28;20029;-46
2023/08/26 03:01:45;;;;;;;5.43;2.97;;;;;;;;;;5036523;28;20287;-45
2023/08/26 03:04:10;;;;;;;6.28;2.90;;;;;;;;;;5035683;28;20040;-45
2023/08/26 03:06:35;;;;;;;3.78;2.85;;;;;;;;;;5032703;28;20025;-46
2023/08/26 03:09:02;;;;;;;4.93;2.93;;;;;;;;;;5031419;28;20032;-46
2023/08/26 03:11:27;;;;;;;6.00;2.75;;;;;;;;;;5038743;28;20033;-46
2023/08/26 03:13:53;;;;;;;5.87;3.20;;;;;;;;;;5030662;28;20024;-45
2023/08/26 03:16:18;;;;;;;7.97;3.30;;;;;;;;;;5032130;28;20074;-46
2023/08/26 03:18:43;;;;;;;7.20;3.83;;;;;;;;;;5037637;28;20095;-46
2023/08/26 03:21:09;;;;;;;6.35;3.65;;;;;;;;;;5036544;28;20021;-45
2023/08/26 03:23:34;;;;;;;7.82;3.70;;;;;;;;;;5039054;28;20030;-46
2023/08/26 03:26:00;;;;;;;5.50;2.97;;;;;;;;;;5018299;28;20021;-46
2023/08/26 03:28:25;;;;;;;5.78;3.72;;;;;;;;;;5028606;28;20032;-46
2023/08/26 03:30:50;;;;;;;6.17;2.90;;;;;;;;;;5030467;28;20025;-45
2023/08/26 03:33:16;;;;;;;4.20;2.70;;;;;;;;;;5038474;28;20298;-45
2023/08/26 03:35:41;;;;;;;6.20;2.60;;;;;;;;;;5039954;28;20025;-46
2023/08/26 03:38:07;;;;;;;7.50;2.93;;;;;;;;;;5039609;28;20074;-46
2023/08/26 03:40:32;;;;;;;7.28;3.25;;;;;;;;;;5036324;28;20018;-46
2023/08/26 03:42:57;;;;;;;5.68;3.33;;;;;;;;;;5031264;28;20032;-46
2023/08/26 03:45:23;;;;;;;6.53;3.50;;;;;;;;;;5033932;28;20042;-45
2023/08/26 03:47:49;;;;;;;4.63;3.45;;;;;;;;;;5036603;28;20318;-45
2023/08/26 03:50:14;;;;;;;6.07;2.75;;;;;;;;;;5030074;28;20044;-45
2023/08/26 03:52:39;;;;;;;5.05;3.20;;;;;;;;;;5032402;28;20037;-46
2023/08/26 03:55:05;;;;;;;5.27;2.90;;;;;;;;;;5039228;28;20039;-46
2023/08/26 03:57:30;;;;;;;5.93;2.78;;;;;;;;;;5033458;28;20095;-45
2023/08/26 03:59:56;;;;;;;7.97;2.47;;;;;;;;;;5034576;28;20056;-46
2023/08/26 04:02:21;;;;;;;5.88;3.17;;;;;;;;;;5022676;28;20033;-46
2023/08/26 04:04:46;;;;;;;5.47;3.58;;;;;;;;;;5032182;28;20056;-45
2023/08/26 04:07:12;;;;;;;7.63;2.97;;;;;;;;;;5029851;28;20637;-45
2023/08/26 04:09:37;;;;;;;5.30;3.00;;;;;;;;;;5038002;28;20275;-46
2023/08/26 04:12:02;;;;;;;4.80;3.03;;;;;;;;;;5029358;28;20029;-46
2023/08/26 04:14:28;;;;;;;6.30;3.15;;;;;;;;;;5032489;28;20057;-45
2023/08/26 04:16:53;;;;;;;7.63;3.22;;;;;;;;;;5027210;28;20440;-45
2023/08/26 04:19:18;;;;;;;5.50;2.93;;;;;;;;;;5027229;28;20376;-46
2023/08/26 04:21:44;;;;;;;5.63;2.93;;;;;;;;;;5029258;28;20051;-46
2023/08/26 04:24:09;;;;;;;6.05;2.83;;;;;;;;;;5035307;28;20029;-46
2023/08/26 04:26:34;;;;;;;6.07;3.03;;;;;;;;;;5031755;28;20030;-46
2023/08/26 04:28:59;;;;;;;10.20;3.33;;;;;;;;;;5031716;28;20267;-46
2023/08/26 04:31:25;;;;;;;6.47;3.13;;;;;;;;;;5020783;28;20582;-46
2023/08/26 04:33:51;;;;;;;5.10;2.43;;;;;;;;;;5032634;28;20048;-45
2023/08/26 04:36:16;;;;;;;8.50;2.97;;;;;;;;;;5031920;28;20035;-46
2023/08/26 04:38:41;;;;;;;6.77;3.47;;;;;;;;;;5030264;28;21182;-46
2023/08/26 04:41:09;;;;;;;9.20;2.90;;;;;;;;;;5033191;28;20034;-46
2023/08/26 04:43:34;;;;;;;6.93;2.60;;;;;;;;;;5032874;28;20284;-46
2023/08/26 04:45:59;;;;;;;3.80;1.90;;;;;;;;;;5033317;28;20078;-46
2023/08/26 04:48:24;;;;;;;5.43;3.10;;;;;;;;;;5032914;28;20021;-46
2023/08/26 04:50:50;;;;;;;5.38;2.72;;;;;;;;;;5015244;28;20272;-46
2023/08/26 04:53:16;;;;;;;4.88;3.22;;;;;;;;;;5032494;28;20026;-46
2023/08/26 04:55:41;;;;;;;8.98;3.42;;;;;;;;;;5029911;28;20146;-46
2023/08/26 04:58:07;;;;;;;6.30;3.13;;;;;;;;;;5033179;28;20033;-46
2023/08/26 05:00:32;;;;;;;5.93;3.10;;;;;;;;;;5034713;28;20036;-46
2023/08/26 05:02:57;;;;;;;9.17;2.87;;;;;;;;;;5037239;28;20017;-46
2023/08/26 05:05:23;;;;;;;5.47;3.43;;;;;;;;;;5032838;28;20391;-46
2023/08/26 05:07:48;;;;;;;5.83;3.43;;;;;;;;;;5035118;28;20283;-46
2023/08/26 05:10:13;;;;;;;6.30;3.60;;;;;;;;;;5030255;28;20307;-46
2023/08/26 05:12:38;;;;;;;5.03;3.70;;;;;;;;;;5015366;28;20044;-46
2023/08/26 05:15:04;;;;;;;6.53;3.23;;;;;;;;;;5032405;28;20025;-46
2023/08/26 05:17:29;;;;;;;7.47;3.47;;;;;;;;;;4995904;28;20043;-46
2023/08/26 05:19:54;;;;;;;7.72;3.50;;;;;;;;;;5030696;28;20468;-45
2023/08/26 05:22:21;;;;;;;6.47;3.67;;;;;;;;;;5028395;28;20017;-45
2023/08/26 05:24:46;;;;;;;7.10;3.95;;;;;;;;;;5035160;28;20279;-45
2023/08/26 05:27:13;;;;;;;6.68;3.45;;;;;;;;;;5039441;28;20021;-46
2023/08/26 05:29:39;;;;;;;8.30;3.55;;;;;;;;;;5037135;28;20013;-45
2023/08/26 05:32:04;;;;;;;8.40;4.20;;;;;;;;;;5026333;28;20052;-45
2023/08/26 05:34:29;;;;;;;6.63;3.80;;;;;;;;;;5025548;28;20318;-45
2023/08/26 05:36:54;;;;;;;7.87;3.87;;;;;;;;;;5038079;28;20055;-45
2023/08/26 05:39:20;;;;;;;6.73;3.50;;;;;;;;;;5027169;28;20288;-45
2023/08/26 05:41:45;;;;;;;7.43;3.80;;;;;;;;;;5030579;28;20363;-45
2023/08/26 05:44:10;;;;;;;5.07;2.93;;;;;;;;;;5036225;28;20029;-45
2023/08/26 05:46:35;;;;;;;7.23;3.13;;;;;;;;;;5035932;28;20037;-46
2023/08/26 05:49:01;;;;;;;8.13;3.57;;;;;;;;;;5025591;28;24716;-46
2023/08/26 05:51:27;;;;;;;7.43;4.23;;;;;;;;;;5036484;28;20037;-45
2023/08/26 05:53:52;;;;;;;4.45;3.55;;;;;;;;;;5029722;28;20372;-46
2023/08/26 05:56:17;;;;;;;9.23;4.15;;;;;;;;;;5028964;28;20098;-45
2023/08/26 05:58:42;;;;;;;5.30;3.37;;;;;;;;;;5033241;28;20017;-46
2023/08/26 06:01:08;;;;;;;7.60;4.47;;;;;;;;;;5017351;28;20025;-46
2023/08/26 06:03:33;;;;;;;6.67;3.50;;;;;;;;;;5024262;28;20033;-46
2023/08/26 06:05:58;;;;;;;7.90;3.90;;;;;;;;;;5020474;28;20123;-46
2023/08/26 06:08:24;;;;;;;5.07;3.23;;;;;;;;;;5029378;28;20083;-46
2023/08/26 06:10:52;;;;;;;4.63;3.40;;;;;;;;;;5023037;28;20033;-46
2023/08/26 06:13:18;;;;;;;5.53;3.22;;;;;;;;;;5023318;28;20017;-46
2023/08/26 06:15:43;;;;;;;5.73;3.57;;;;;;;;;;5026968;28;20076;-46
2023/08/26 06:18:08;;;;;;;9.85;3.95;;;;;;;;;;5023028;28;20034;-45
2023/08/26 06:20:34;;;;;;;7.10;3.47;;;;;;;;;;5012153;28;20061;-45
2023/08/26 06:22:59;;;;;;;6.40;3.63;;;;;;;;;;5041418;28;20053;-45
2023/08/26 06:25:25;;;;;;;6.63;3.67;;;;;;;;;;5023618;28;20268;-46
2023/08/26 06:27:50;;;;;;;6.27;3.60;;;;;;;;;;5036073;28;20033;-46
2023/08/26 06:30:16;;;;;;;5.00;2.60;;;;;;;;;;5033298;28;20037;-46
2023/08/26 06:32:41;;;;;;;7.10;3.58;;;;;;;;;;5011582;28;20375;-45
2023/08/26 06:35:07;;;;;;;9.25;4.35;;;;;;;;;;5032966;28;20033;-45
2023/08/26 06:37:32;;;;;;;7.78;4.00;;;;;;;;;;5033984;28;20491;-45
2023/08/26 06:39:57;;;;;;;7.55;4.15;;;;;;;;;;5035771;28;20111;-45
2023/08/26 06:42:23;;;;;;;8.40;4.03;;;;;;;;;;5033731;28;20079;-45
2023/08/26 06:44:48;;;;;;;6.10;3.92;;;;;;;;;;5033654;28;20606;-45
2023/08/26 06:47:13;;;;;;;9.87;3.90;;;;;;;;;;5030070;28;20048;-45
2023/08/26 06:49:39;;;;;;;10.33;4.67;;;;;;;;;;5031439;28;20087;-45
2023/08/26 06:52:04;;;;;;;7.53;5.03;;;;;;;;;;5039611;28;20148;-45
2023/08/26 06:54:29;;;;;;;8.98;3.55;;;;;;;;;;5038409;28;20398;-45
2023/08/26 06:56:55;;;;;;;5.22;3.50;;;;;;;;;;5041087;28;20060;-45
2023/08/26 06:59:20;;;;;;;8.40;4.10;;;;;;;;;;5033467;28;20087;-45
2023/08/26 07:01:45;;;;;;;9.20;4.70;;;;;;;;;;5035271;28;20068;-45
2023/08/26 07:04:11;;;;;;;10.33;3.50;;;;;;;;;;5027094;28;20017;-46
2023/08/26 07:06:36;;;;;;;6.15;4.03;;;;;;;;;;5016793;28;20284;-46
2023/08/26 07:09:04;;;;;;;6.25;3.88;;;;;;;;;;5033719;28;20032;-46
2023/08/26 07:11:29;;;;;;;8.20;3.88;;;;;;;;;;5035095;28;20064;-45
2023/08/26 07:13:54;;;;;;;8.00;3.80;;;;;;;;;;5035155;28;20061;-45
2023/08/26 07:16:19;;;;;;;10.57;5.00;;;;;;;;;;5038691;28;20292;-46
2023/08/26 07:18:45;;;;;;;6.25;3.83;;;;;;;;;;5020023;28;20322;-45
2023/08/26 07:21:10;;;;;;;7.18;4.47;;;;;;;;;;5022825;28;20479;-46
2023/08/26 07:23:35;;;;;;;9.77;4.60;;;;;;;;;;5026333;28;20029;-45
2023/08/26 07:26:01;;;;;;;15.80;4.90;;;;;;;;;;5023628;28;20264;-45
2023/08/26 07:28:26;;;;;;;7.57;4.30;;;;;;;;;;5034380;28;20028;-45
2023/08/26 07:30:53;;;;;;;13.15;6.35;;;;;;;;;;5027372;28;20059;-45
2023/08/26 07:33:19;;;;;;;8.15;5.20;;;;;;;;;;5032394;28;20017;-46
2023/08/26 07:35:44;;;;;;;7.55;4.20;;;;;;;;;;5035444;28;20043;-46
2023/08/26 07:38:09;;;;;;;8.25;4.07;;;;;;;;;;5034996;28;20033;-46
2023/08/26 07:40:35;;;;;;;11.03;6.77;;;;;;;;;;5031483;28;20045;-46
2023/08/26 07:43:00;;;;;;;6.30;3.75;;;;;;;;;;5026094;28;20026;-45
2023/08/26 07:45:26;;;;;;;5.80;3.78;;;;;;;;;;5027243;28;20021;-45
2023/08/26 07:47:51;;;;;;;9.77;4.05;;;;;;;;;;5029932;28;20040;-46
2023/08/26 07:50:16;;;;;;;9.48;4.28;;;;;;;;;;5032937;28;20029;-45
2023/08/26 07:52:42;;;;;;;7.05;4.38;;;;;;;;;;5035960;28;20052;-45
2023/08/26 07:55:07;;;;;;;8.63;3.90;;;;;;;;;;5037404;28;20034;-45
2023/08/26 07:57:32;;;;;;;5.38;3.72;;;;;;;;;;5031596;28;20125;-46
2023/08/26 07:59:58;;;;;;;8.30;4.00;;;;;;;;;;5034018;28;20035;-46
2023/08/26 08:02:23;;;;;;;8.73;4.33;;;;;;;;;;5030351;28;20041;-46
2023/08/26 08:04:48;;;;;;;9.97;4.30;;;;;;;;;;5031961;28;20280;-46
2023/08/26 08:07:13;;;;;;;9.33;6.20;;;;;;;;;;5027912;28;20033;-46
2023/08/26 08:09:39;;;;;;;9.43;5.17;;;;;;;;;;5028604;28;20279;-46
2023/08/26 08:12:05;;;;;;;3.42;2.30;;;;;;;;;;5024127;28;21507;-46
2023/08/26 08:14:30;;;;;;;6.65;3.88;;;;;;;;;;5029361;28;20033;-46
2023/08/26 08:16:56;;;;;;;11.18;4.32;;;;;;;;;;5033790;28;20024;-46
2023/08/26 08:19:21;;;;;;;5.78;3.47;;;;;;;;;;5034365;28;20033;-46
2023/08/26 08:21:46;;;;;;;9.20;4.33;;;;;;;;;;5033610;28;22175;-46
2023/08/26 08:24:12;;;;;;;7.22;4.20;;;;;;;;;;5031571;28;20025;-46
2023/08/26 08:26:37;;;;;;;6.83;4.23;;;;;;;;;;5029416;28;20036;-46
2023/08/26 08:29:03;;;;;;;7.72;3.78;;;;;;;;;;5030862;28;20032;-46
2023/08/26 08:31:28;;;;;;;7.90;4.10;;;;;;;;;;5034764;28;20694;-45
2023/08/26 08:33:53;;;;;;;11.43;6.32;;;;;;;;;;5016592;28;20487;-46
2023/08/26 08:36:19;;;;;;;8.67;5.93;;;;;;;;;;5028191;28;20025;-46
2023/08/26 08:38:44;;;;;;;8.93;5.03;;;;;;;;;;5034321;28;20540;-46
2023/08/26 08:41:10;;;;;;;8.50;4.53;;;;;;;;;;5022209;28;20025;-46
2023/08/26 08:43:36;;;;;;;8.70;4.57;;;;;;;;;;5032855;28;20459;-46
2023/08/26 08:46:02;;;;;;;10.98;5.60;;;;;;;;;;5033922;28;20359;-46
2023/08/26 08:48:28;;;;;;;10.52;5.47;;;;;;;;;;5032923;28;20124;-46
2023/08/26 08:50:54;;;;;;;9.68;5.55;;;;;;;;;;5029526;28;20051;-46
2023/08/26 08:53:24;;;;;;;8.20;4.38;;;;;;;;;;5015628;28;20114;-46
2023/08/26 08:55:50;;;;;;;9.15;4.80;;;;;;;;;;5012483;28;20036;-46
2023/08/26 08:58:16;;;;;;;8.80;4.75;;;;;;;;;;5027185;28;20030;-46
2023/08/26 09:00:41;;;;;;;7.82;4.90;;;;;;;;;;5036920;28;20024;-46
2023/08/26 09:03:08;;;;;;;7.22;4.68;;;;;;;;;;5033240;28;20025;-46
2023/08/26 09:05:33;;;;;;;6.95;5.38;;;;;;;;;;5028527;28;20025;-46
2023/08/26 09:07:59;;;;;;;6.73;5.10;;;;;;;;;;5022895;28;20428;-46
2023/08/26 09:10:32;;;;;;;9.27;6.07;;;;;;;;;;5027034;28;20286;-47
2023/08/26 09:12:58;;;;;;;7.57;3.80;;;;;;;;;;5034029;28;20486;-45
2023/08/26 09:15:24;;;;;;;8.88;5.88;;;;;;;;;;5018281;28;20031;-46
2023/08/26 09:17:55;;;;;;;8.80;5.57;;;;;;;;;;5030364;28;20439;-45
2023/08/26 09:20:20;;;;;;;10.48;6.35;;;;;;;;;;5018811;28;20059;-46
2023/08/26 09:22:46;;;;;;;10.17;6.03;;;;;;;;;;5033647;28;20052;-46
2023/08/26 09:25:11;;;;;;;9.43;5.45;;;;;;;;;;5019591;28;20283;-46
2023/08/26 09:27:43;;;;;;;9.43;6.20;;;;;;;;;;5033500;28;20030;-46
2023/08/26 09:30:08;;;;;;;11.32;5.90;;;;;;;;;;5033115;28;20298;-46
2023/08/26 09:32:35;;;;;;;12.55;7.40;;;;;;;;;;5029004;28;20031;-46
2023/08/26 09:35:27;;;;;;;8.45;5.35;;;;;;;;;;5031924;28;20017;-46
2023/08/26 09:38:01;;;;;;;8.60;5.40;;;;;;;;;;5030015;28;20162;-46
2023/08/26 09:40:26;;;;;;;8.88;5.25;;;;;;;;;;5029270;28;20133;-46
2023/08/26 09:42:52;;;;;;;8.38;5.47;;;;;;;;;;5026938;28;20477;-46
2023/08/26 09:45:18;;;;;;;8.20;4.82;;;;;;;;;;5017422;28;20051;-46
2023/08/26 09:47:44;;;;;;;8.20;4.18;;;;;;;;;;5032353;28;20483;-46
2023/08/26 09:50:10;;;;;;;6.80;4.53;;;;;;;;;;5026594;28;20037;-46
2023/08/26 09:52:48;;;;;;;9.13;4.53;;;;;;;;;;5029108;28;20028;-46
2023/08/26 09:55:14;;;;;;;6.78;4.05;;;;;;;;;;5028663;28;20479;-45
2023/08/26 09:57:40;;;;;;;7.32;3.67;;;;;;;;;;5031310;28;20035;-45
2023/08/26 10:00:10;;;;;;;9.35;5.47;;;;;;;;;;5023196;28;20041;-45
2023/08/26 10:02:37;;;;;;;7.05;3.30;;;;;;;;;;5025305;28;21053;-45
2023/08/26 10:05:04;;;;;;;7.50;3.65;;;;;;;;;;5026033;28;20091;-45
2023/08/26 10:07:30;;;;;;;5.05;3.08;;;;;;;;;;5025836;28;20131;-46
2023/08/26 10:09:59;;;;;;;4.90;3.42;;;;;;;;;;5031581;28;20033;-46
2023/08/26 10:12:43;;;;;;;6.85;3.92;;;;;;;;;;5032023;28;21818;-46
2023/08/26 10:15:12;;;;;;;7.95;3.40;;;;;;;;;;5034257;28;20040;-46
2023/08/26 10:17:40;;;;;;;5.72;3.60;;;;;;;;;;5034332;28;20462;-45
2023/08/26 10:20:07;;;;;;;4.88;3.45;;;;;;;;;;5034125;28;20074;-46
2023/08/26 10:22:33;;;;;;;7.03;3.13;;;;;;;;;;5033155;28;20036;-46
2023/08/26 10:24:58;;;;;;;5.68;3.78;;;;;;;;;;5030455;28;20063;-45
2023/08/26 10:27:24;;;;;;;5.68;3.10;;;;;;;;;;5028700;28;20383;-45
2023/08/26 10:29:49;;;;;;;8.40;3.60;;;;;;;;;;5037241;28;20355;-46
2023/08/26 10:32:17;;;;;;;7.35;3.80;;;;;;;;;;5037116;28;20055;-45
2023/08/26 10:34:55;;;;;;;5.35;3.20;;;;;;;;;;5036424;28;20036;-45
2023/08/26 10:37:28;;;;;;;6.55;3.53;;;;;;;;;;5028213;28;20047;-45
2023/08/26 10:39:54;;;;;;;3.58;1.83;;;;;;;;;;5028598;28;20060;-46
2023/08/26 10:42:20;;;;;;;5.88;3.50;;;;;;;;;;5030393;28;20067;-46
2023/08/26 10:44:52;;;;;;;5.47;3.70;;;;;;;;;;5039447;28;20026;-45
2023/08/26 10:47:39;;;;;;;6.05;3.55;;;;;;;;;;5040289;28;20356;-45
2023/08/26 10:50:21;;;;;;;5.40;3.45;;;;;;;;;;5033751;28;20041;-45
2023/08/26 10:52:54;;;;;;;5.20;2.97;;;;;;;;;;5039902;28;20057;-45
2023/08/26 10:55:22;;;;;;;6.00;2.90;;;;;;;;;;5040544;28;20056;-45
2023/08/26 10:57:59;;;;;;;5.78;3.30;;;;;;;;;;5029646;28;20021;-46
2023/08/26 11:00:24;;;;;;;6.70;2.92;;;;;;;;;;5034190;28;20025;-45
2023/08/26 11:02:50;;;;;;;4.65;3.03;;;;;;;;;;5041664;28;20029;-45
2023/08/26 11:05:15;;;;;;;5.45;3.15;;;;;;;;;;5040962;28;20048;-45
2023/08/26 11:07:40;;;;;;;8.40;3.03;;;;;;;;;;5044855;28;20032;-45
2023/08/26 11:10:06;;;;;;;3.07;1.87;;;;;;;;;;5038909;28;20061;-45
2023/08/26 11:12:31;;;;;;;6.13;3.20;;;;;;;;;;5045207;28;20028;-45
2023/08/26 11:15:03;;;;;;;6.00;3.65;;;;;;;;;;5040614;28;20032;-45
2023/08/26 11:17:29;;;;;;;6.75;3.65;;;;;;;;;;5063686;22;20040;-45
2023/08/26 11:19:54;;;;;;;6.97;3.70;;;;;;;;;;5085345;28;20042;-46
2023/08/26 11:22:24;;;;;;;6.65;2.88;;;;;;;;;;5080259;28;20028;-46
2023/08/26 11:24:50;;;;;;;7.07;3.95;;;;;;;;;;5077645;28;20439;-45
2023/08/26 11:27:16;;;;;;;8.88;4.07;;;;;;;;;;5069777;28;20386;-46
2023/08/26 11:29:41;;;;;;;8.20;3.97;;;;;;;;;;5062519;28;20024;-45
2023/08/26 11:32:06;;;;;;;6.47;3.53;;;;;;;;;;5063015;28;20047;-46
2023/08/26 11:34:31;;;;;;;12.52;3.70;;;;;;;;;;5063812;28;20466;-45
2023/08/26 11:36:57;;;;;;;7.90;4.27;;;;;;;;;;5062100;28;20514;-45
2023/08/26 11:39:22;;;;;;;8.70;3.93;;;;;;;;;;5046026;28;20330;-46
2023/08/26 11:41:47;;;;;;;6.10;3.85;;;;;;;;;;5062582;28;20838;-45
2023/08/26 11:44:14;;;;;;;8.43;4.63;;;;;;;;;;5065113;28;20071;-45
2023/08/26 11:46:39;;;;;;;9.40;4.50;;;;;;;;;;5060879;28;20028;-46
2023/08/26 11:49:04;;;;;;;7.95;3.80;;;;;;;;;;5060976;28;20074;-46
2023/08/26 11:51:29;;;;;;;9.03;4.57;;;;;;;;;;5062263;28;20028;-45
2023/08/26 11:53:55;;;;;;;9.77;4.90;;;;;;;;;;5057860;28;20291;-46
2023/08/26 11:56:20;;;;;;;8.90;4.87;;;;;;;;;;5060525;28;20657;-45
2023/08/26 11:58:45;;;;;;;9.25;5.60;;;;;;;;;;5058798;28;20074;-46
2023/08/26 12:01:12;;;;;;;10.63;4.80;;;;;;;;;;5065162;28;20486;-45
2023/08/26 12:03:42;;;;;;;8.75;4.88;;;;;;;;;;5066257;28;20068;-45
2023/08/26 12:06:07;;;;;;;7.60;4.50;;;;;;;;;;5058337;28;20033;-46
2023/08/26 12:08:33;;;;;;;12.13;5.23;;;;;;;;;;5059809;28;20040;-46
2023/08/26 12:10:58;;;;;;;10.20;5.18;;;;;;;;;;5058398;28;20279;-46
2023/08/26 12:13:35;;;;;;;11.93;4.88;;;;;;;;;;5063088;28;20023;-46
2023/08/26 12:16:01;;;;;;;10.38;5.05;;;;;;;;;;5061429;28;20020;-46
2023/08/26 12:18:27;;;;;;;9.27;5.57;;;;;;;;;;5057814;28;20037;-45
2023/08/26 12:20:54;;;;;;;11.27;5.57;;;;;;;;;;5058924;28;20139;-45
2023/08/26 12:23:21;;;;;;;10.73;5.80;;;;;;;;;;5061341;28;20055;-46
2023/08/26 12:25:46;;;;;;;6.65;3.47;;;;;;;;;;5059813;28;20732;-45
2023/08/26 12:28:14;;;;;;;12.18;4.97;;;;;;;;;;5055624;28;20035;-46
2023/08/26 12:30:40;;;;;;;12.43;6.93;;;;;;;;;;5064442;28;21411;-46
2023/08/26 12:33:06;;;;;;;6.63;4.90;;;;;;;;;;5062765;28;20060;-45
2023/08/26 12:35:35;;;;;;;10.02;6.00;;;;;;;;;;5063058;28;20390;-46
2023/08/26 12:38:02;;;;;;;10.57;5.00;;;;;;;;;;5054307;28;20130;-46
2023/08/26 12:40:31;;;;;;;9.40;5.50;;;;;;;;;;5057885;28;20094;-46
2023/08/26 12:42:57;;;;;;;9.15;4.97;;;;;;;;;;5061334;28;20020;-45
2023/08/26 12:45:22;;;;;;;10.55;4.70;;;;;;;;;;5060728;28;20032;-45
2023/08/26 12:47:47;;;;;;;11.73;4.70;;;;;;;;;;5064716;28;20104;-46
2023/08/26 12:50:13;;;;;;;13.83;4.67;;;;;;;;;;5056669;28;20025;-46
2023/08/26 12:52:38;;;;;;;9.35;4.70;;;;;;;;;;5055185;28;20020;-46
2023/08/26 12:55:04;;;;;;;12.27;4.53;;;;;;;;;;5064287;28;20386;-46
2023/08/26 12:57:29;;;;;;;11.05;4.00;;;;;;;;;;5046092;28;20831;-45
2023/08/26 12:59:56;;;;;;;11.45;4.20;;;;;;;;;;5064996;28;20033;-45
2023/08/26 13:02:21;;;;;;;8.73;4.38;;;;;;;;;;5082391;22;20019;-47
2023/08/26 13:04:46;;;;;;;8.43;5.45;;;;;;;;;;5020534;28;20021;-47
2023/08/26 13:07:12;;;;;;;11.00;5.40;;;;;;;;;;5021942;28;20487;-46
2023/08/26 13:09:37;;;;;;;9.48;4.53;;;;;;;;;;5024246;28;20293;-47
2023/08/26 13:12:03;;;;;;;8.38;4.78;;;;;;;;;;5025307;28;20052;-46
2023/08/26 13:14:28;;;;;;;8.10;5.07;;;;;;;;;;5023997;28;20032;-46
2023/08/26 13:16:54;;;;;;;6.78;4.10;;;;;;;;;;5020283;28;20069;-46
2023/08/26 13:19:20;;;;;;;15.07;5.88;;;;;;;;;;5019044;28;20511;-46
2023/08/26 13:21:45;;;;;;;6.43;4.00;;;;;;;;;;5025076;28;20079;-46
2023/08/26 13:24:10;;;;;;;7.95;4.40;;;;;;;;;;5013624;28;20502;-46
2023/08/26 13:26:36;;;;;;;7.20;4.27;;;;;;;;;;5022577;28;20471;-46
2023/08/26 13:29:01;;;;;;;8.80;5.30;;;;;;;;;;5022785;28;20036;-46
2023/08/26 13:31:26;;;;;;;8.00;4.67;;;;;;;;;;5025385;28;20615;-46
2023/08/26 13:33:51;;;;;;;4.63;3.33;;;;;;;;;;5016059;28;20045;-46
2023/08/26 13:36:17;;;;;;;8.60;4.67;;;;;;;;;;5020778;28;20283;-47
2023/08/26 13:38:45;;;;;;;7.57;4.30;;;;;;;;;;5026447;28;20030;-46
2023/08/26 13:41:10;;;;;;;9.63;4.80;;;;;;;;;;5017058;28;20026;-46
2023/08/26 13:43:36;;;;;;;10.63;4.63;;;;;;;;;;5026303;28;20028;-46
2023/08/26 13:46:01;;;;;;;10.93;5.00;;;;;;;;;;5025327;28;20113;-47
2023/08/26 13:48:27;;;;;;;7.27;4.53;;;;;;;;;;5021568;28;20542;-46
2023/08/26 13:50:52;;;;;;;7.65;4.57;;;;;;;;;;5054258;22;20035;-48
2023/08/26 13:53:17;;;;;;;15.20;4.57;;;;;;;;;;5042154;28;20044;-47
2023/08/26 13:55:42;;;;;;;6.50;3.90;;;;;;;;;;5042690;28;20036;-47
2023/08/26 13:58:08;;;;;;;8.83;4.73;;;;;;;;;;5037690;28;20492;-47
2023/08/26 14:00:34;;;;;;;10.90;4.13;;;;;;;;;;5042572;28;20014;-47
2023/08/26 14:02:59;;;;;;;8.38;3.90;;;;;;;;;;5038364;28;20407;-47
2023/08/26 14:05:28;;;;;;;10.13;5.43;;;;;;;;;;5035299;28;20417;-48
2023/08/26 14:07:53;;;;;;;8.18;4.70;;;;;;;;;;5036132;28;20025;-47
2023/08/26 14:10:18;;;;;;;11.90;4.53;;;;;;;;;;5032726;28;20017;-47
2023/08/26 14:12:43;;;;;;;10.07;4.63;;;;;;;;;;5029104;28;20037;-48
2023/08/26 14:15:09;;;;;;;7.97;4.70;;;;;;;;;;5030998;28;20295;-47
2023/08/26 14:17:35;;;;;;;8.15;3.67;;;;;;;;;;5034120;28;20033;-47
2023/08/26 14:20:00;;;;;;;9.48;3.90;;;;;;;;;;5030346;28;20053;-47
2023/08/26 14:22:25;;;;;;;5.30;3.67;;;;;;;;;;5032260;28;20024;-47
2023/08/26 14:24:51;;;;;;;5.93;3.33;;;;;;;;;;5029095;28;20021;-47
2023/08/26 14:27:16;;;;;;;9.02;4.30;;;;;;;;;;5032180;28;20032;-47
2023/08/26 14:29:42;;;;;;;6.72;3.70;;;;;;;;;;5029798;28;20021;-47
2023/08/26 14:32:07;;;;;;;5.57;3.50;;;;;;;;;;5027907;28;20044;-46
2023/08/26 14:34:33;;;;;;;5.77;3.50;;;;;;;;;;5031529;28;20025;-47